Elizabeth R — WDG5460 — position and weather

sailwx.info

Track history (hours):
 
Tides and Currents Weather Stations Pressure Air Temp Water Temp Dewpoint Dewpoint Depression Visibility Wind Speed Wind Dir Waves Ship Positions

Elizabeth R

Owner: Kirby Inland Marine LP, Houston, TX. More information available from US FCC via Universal Licensing System and Coast Guard Vessel Documentation Center.

Last reported at 2017-Sep-25 10:01 UTC. Time now 2017-Sep-25 13:40 UTC.
Position N 29°31' W 094°53'.

Length 120 m; draft 2.7 m.

Type: . MMSI: 367546910.

Date/timePositionNaut miles runAvg speedWind from/ knotsBaromVisibWave heightAir tempDewpointWater temp
2017-Sep-25 10:01N 29°31' W 094°53'0 6.3
2017-Sep-25 10:00N 29°31' W 094°53'3 6.0
2017-Sep-25 09:30N 29°34' W 094°55'3 6.2
2017-Sep-25 09:00N 29°36' W 094°57'3 6.5
2017-Sep-25 08:30N 29°39' W 094°58'3 5.9
2017-Sep-25 08:00N 29°42' W 095°00'3 5.2
2017-Sep-25 07:30N 29°44' W 095°02'3 2.6
2017-Sep-25 06:15N 29°46' W 095°06'2 3.8
2017-Sep-25 05:38N 29°44' W 095°03'1 5.7
2017-Sep-25 05:30N 29°44' W 095°03'3 6.3
2017-Sep-25 05:00N 29°42' W 094°60'4 7.6
2017-Sep-25 04:30N 29°38' W 094°58'2 4.9
2017-Sep-25 04:00N 29°37' W 094°60'1 2.8
2017-Sep-25 03:30N 29°37' W 095°02'0 0.0
2017-Sep-25 03:00N 29°37' W 095°02'0 0.1
2017-Sep-25 02:30N 29°37' W 095°02'0 0.0
2017-Sep-25 02:00N 29°37' W 095°02'0 0.0
2017-Sep-25 01:30N 29°37' W 095°02'0 0.0
2017-Sep-25 01:00N 29°37' W 095°02'0 0.0
2017-Sep-25 00:30N 29°37' W 095°02'0 0.0
2017-Sep-25 00:00N 29°37' W 095°02'0 0.0
2017-Sep-24 23:30N 29°37' W 095°02'0 0.1
2017-Sep-24 23:00N 29°37' W 095°02'0 0.0
2017-Sep-24 22:29N 29°37' W 095°02'0 0.0
2017-Sep-24 22:00N 29°37' W 095°02'0 0.0
2017-Sep-24 21:30N 29°37' W 095°02'0 0.1
2017-Sep-24 21:00N 29°37' W 095°01'0 0.0
2017-Sep-24 20:30N 29°37' W 095°01'0 0.0
2017-Sep-24 20:00N 29°37' W 095°01'0 0.0
2017-Sep-24 19:30N 29°37' W 095°01'0 0.0
2017-Sep-24 19:00N 29°37' W 095°01'0 0.0
2017-Sep-24 18:30N 29°37' W 095°01'0 0.0
2017-Sep-24 18:00N 29°37' W 095°01'0 0.1
2017-Sep-24 17:30N 29°37' W 095°01'1 2.6
2017-Sep-24 17:00N 29°37' W 094°60'2 4.2
2017-Sep-24 16:30N 29°37' W 094°58'3 5.1
2017-Sep-24 16:00N 29°40' W 094°58'3 5.1
2017-Sep-24 15:30N 29°42' W 095°00'2 4.5
2017-Sep-24 15:00N 29°44' W 095°02'3 4.6
2017-Sep-24 14:22N 29°45' W 095°04'1 1.2
2017-Sep-24 13:45N 29°46' W 095°05'0 0.0
2017-Sep-24 13:30N 29°46' W 095°05'1 1.9
2017-Sep-24 13:00N 29°46' W 095°05'1 1.6
2017-Sep-24 12:27N 29°45' W 095°06'0 0.1
2017-Sep-24 09:23N 29°45' W 095°06'0 0.0
2017-Sep-24 08:51N 29°45' W 095°06'0 0.0
2017-Sep-24 08:29N 29°45' W 095°06'0 0.0
2017-Sep-24 08:00N 29°45' W 095°06'0 0.0
2017-Sep-24 07:30N 29°45' W 095°06'0 0.0
2017-Sep-24 07:00N 29°45' W 095°06'0 0.0
2017-Sep-24 06:30N 29°45' W 095°06'0 0.0
2017-Sep-24 05:59N 29°45' W 095°06'0 0.0
2017-Sep-24 05:30N 29°45' W 095°06'0 0.0
2017-Sep-24 05:00N 29°45' W 095°06'0 0.0
2017-Sep-24 04:30N 29°45' W 095°06'0 0.0
2017-Sep-24 04:00N 29°45' W 095°06'0 0.0
2017-Sep-24 03:30N 29°45' W 095°06'1 0.4
2017-Sep-24 01:32N 29°45' W 095°06'1 3.4
2017-Sep-24 01:17N 29°46' W 095°06'0 0.5
2017-Sep-24 00:48N 29°46' W 095°06'1 2.5
2017-Sep-24 00:16N 29°44' W 095°07'1 1.3
2017-Sep-23 23:44N 29°44' W 095°08'0 0.1
2017-Sep-23 21:53N 29°44' W 095°08'2 3.1
2017-Sep-23 21:21N 29°45' W 095°06'0 0.0
2017-Sep-23 20:40N 29°45' W 095°06'1 2.6
2017-Sep-23 20:24N 29°45' W 095°06'1 3.2
2017-Sep-23 20:00N 29°46' W 095°05'1 0.0
2017-Sep-21 23:46N 29°45' W 095°06'2 6.2
2017-Sep-21 23:31N 29°47' W 095°05'0 0.3
2017-Sep-21 21:53N 29°47' W 095°04'3 6.6
2017-Sep-21 21:28N 29°45' W 095°06'0 0.1
2017-Sep-21 20:51N 29°45' W 095°06'0 0.0
2017-Sep-21 20:24N 29°45' W 095°06'3 4.9
2017-Sep-21 19:53N 29°44' W 095°09'5 2.0
2017-Sep-21 17:21N 29°43' W 095°15'3 3.6
2017-Sep-21 16:38N 29°44' W 095°12'1 4.4
2017-Sep-21 16:30N 29°45' W 095°11'3 4.2
2017-Sep-21 15:48N 29°44' W 095°08'2 4.4
2017-Sep-21 15:24N 29°45' W 095°06'1 1.0
2017-Sep-21 14:00N 29°46' W 095°05'1 0.7
2017-Sep-21 13:14N 29°45' W 095°06'0 0.2
2017-Sep-21 11:46N 29°46' W 095°05'0 0.2
2017-Sep-21 10:31N 29°46' W 095°05'0 6.8
2017-Sep-21 10:30N 29°46' W 095°05'0 0.1
2017-Sep-21 08:36N 29°46' W 095°05'2 6.6
2017-Sep-21 08:17N 29°44' W 095°03'0 1.5
2017-Sep-21 07:58N 29°44' W 095°03'0 0.1
2017-Sep-21 07:29N 29°44' W 095°03'0 0.0
2017-Sep-21 07:01N 29°44' W 095°03'0 0.0
2017-Sep-21 06:30N 29°44' W 095°03'0 0.0
2017-Sep-20 06:46N 29°44' W 095°03'0 0.0
2017-Sep-20 06:23N 29°44' W 095°03'1 3.4
2017-Sep-20 05:58N 29°45' W 095°04'2 3.3
2017-Sep-20 05:30N 29°46' W 095°06'0 0.0
2017-Sep-20 04:39N 29°46' W 095°06'0 0.2
2017-Sep-20 04:28N 29°46' W 095°06'3 4.5
2017-Sep-20 03:52N 29°44' W 095°03'0 0.3
2017-Sep-20 03:31N 29°44' W 095°03'0 0.0
2017-Sep-20 01:32N 29°44' W 095°03'0 0.0
2017-Sep-19 18:29N 29°44' W 095°03'0 0.0
2017-Sep-19 09:33N 29°44' W 095°03'0 0.1
2017-Sep-19 09:30N 29°44' W 095°03'0 0.1
2017-Sep-19 08:59N 29°44' W 095°03'0 0.2
2017-Sep-19 08:31N 29°44' W 095°03'0 0.1
2017-Sep-19 08:00N 29°44' W 095°03'0 0.1
2017-Sep-19 07:31N 29°44' W 095°03'1 1.2
2017-Sep-19 06:46N 29°44' W 095°02'1 3.7
2017-Sep-19 06:30N 29°43' W 095°01'2 3.8
2017-Sep-19 06:00N 29°42' W 094°60'1 1.9
2017-Sep-19 05:30N 29°41' W 095°00'0 0.5
2017-Sep-19 05:00N 29°41' W 094°60'1 3.0
2017-Sep-19 04:30N 29°40' W 094°59'3 5.4
2017-Sep-19 04:00N 29°38' W 094°58'3 5.5
2017-Sep-19 03:27N 29°35' W 094°56'2 5.5
2017-Sep-19 03:00N 29°33' W 094°54'  
Track history (hours):
 
Tides and Currents Weather Stations Pressure Air Temp Water Temp Dewpoint Dewpoint Depression Visibility Wind Speed Wind Dir Waves Ship Positions

Elizabeth R

Owner: Kirby Inland Marine LP, Houston, TX. More information available from US FCC via Universal Licensing System and Coast Guard Vessel Documentation Center.

Last reported at 2017-Sep-25 10:01 UTC. Time now 2017-Sep-25 13:40 UTC.
Position N 29°31' W 094°53'.

Length 120 m; draft 2.7 m.

Type: . MMSI: 367546910.

Date/timePositionNaut miles runAvg speedWind from/ knotsBaromVisibWave heightAir tempDewpointWater temp
2017-Sep-25 10:01N 29°31' W 094°53'0 6.3
2017-Sep-25 10:00N 29°31' W 094°53'3 6.0
2017-Sep-25 09:30N 29°34' W 094°55'3 6.2
2017-Sep-25 09:00N 29°36' W 094°57'3 6.5
2017-Sep-25 08:30N 29°39' W 094°58'3 5.9
2017-Sep-25 08:00N 29°42' W 095°00'3 5.2
2017-Sep-25 07:30N 29°44' W 095°02'3 2.6
2017-Sep-25 06:15N 29°46' W 095°06'2 3.8
2017-Sep-25 05:38N 29°44' W 095°03'1 5.7
2017-Sep-25 05:30N 29°44' W 095°03'3 6.3
2017-Sep-25 05:00N 29°42' W 094°60'4 7.6
2017-Sep-25 04:30N 29°38' W 094°58'2 4.9
2017-Sep-25 04:00N 29°37' W 094°60'1 2.8
2017-Sep-25 03:30N 29°37' W 095°02'0 0.0
2017-Sep-25 03:00N 29°37' W 095°02'0 0.1
2017-Sep-25 02:30N 29°37' W 095°02'0 0.0
2017-Sep-25 02:00N 29°37' W 095°02'0 0.0
2017-Sep-25 01:30N 29°37' W 095°02'0 0.0
2017-Sep-25 01:00N 29°37' W 095°02'0 0.0
2017-Sep-25 00:30N 29°37' W 095°02'0 0.0
2017-Sep-25 00:00N 29°37' W 095°02'0 0.0
2017-Sep-24 23:30N 29°37' W 095°02'0 0.1
2017-Sep-24 23:00N 29°37' W 095°02'0 0.0
2017-Sep-24 22:29N 29°37' W 095°02'0 0.0
2017-Sep-24 22:00N 29°37' W 095°02'0 0.0
2017-Sep-24 21:30N 29°37' W 095°02'0 0.1
2017-Sep-24 21:00N 29°37' W 095°01'0 0.0
2017-Sep-24 20:30N 29°37' W 095°01'0 0.0
2017-Sep-24 20:00N 29°37' W 095°01'0 0.0
2017-Sep-24 19:30N 29°37' W 095°01'0 0.0
2017-Sep-24 19:00N 29°37' W 095°01'0 0.0
2017-Sep-24 18:30N 29°37' W 095°01'0 0.0
2017-Sep-24 18:00N 29°37' W 095°01'0 0.1
2017-Sep-24 17:30N 29°37' W 095°01'1 2.6
2017-Sep-24 17:00N 29°37' W 094°60'2 4.2
2017-Sep-24 16:30N 29°37' W 094°58'3 5.1
2017-Sep-24 16:00N 29°40' W 094°58'3 5.1
2017-Sep-24 15:30N 29°42' W 095°00'2 4.5
2017-Sep-24 15:00N 29°44' W 095°02'3 4.6
2017-Sep-24 14:22N 29°45' W 095°04'1 1.2
2017-Sep-24 13:45N 29°46' W 095°05'0 0.0
2017-Sep-24 13:30N 29°46' W 095°05'1 1.9
2017-Sep-24 13:00N 29°46' W 095°05'1 1.6
2017-Sep-24 12:27N 29°45' W 095°06'0 0.1
2017-Sep-24 09:23N 29°45' W 095°06'0 0.0
2017-Sep-24 08:51N 29°45' W 095°06'0 0.0
2017-Sep-24 08:29N 29°45' W 095°06'0 0.0
2017-Sep-24 08:00N 29°45' W 095°06'0 0.0
2017-Sep-24 07:30N 29°45' W 095°06'0 0.0
2017-Sep-24 07:00N 29°45' W 095°06'0 0.0
2017-Sep-24 06:30N 29°45' W 095°06'0 0.0
2017-Sep-24 05:59N 29°45' W 095°06'0 0.0
2017-Sep-24 05:30N 29°45' W 095°06'0 0.0
2017-Sep-24 05:00N 29°45' W 095°06'0 0.0
2017-Sep-24 04:30N 29°45' W 095°06'0 0.0
2017-Sep-24 04:00N 29°45' W 095°06'0 0.0
2017-Sep-24 03:30N 29°45' W 095°06'1 0.4
2017-Sep-24 01:32N 29°45' W 095°06'1 3.4
2017-Sep-24 01:17N 29°46' W 095°06'0 0.5
2017-Sep-24 00:48N 29°46' W 095°06'1 2.5
2017-Sep-24 00:16N 29°44' W 095°07'1 1.3
2017-Sep-23 23:44N 29°44' W 095°08'0 0.1
2017-Sep-23 21:53N 29°44' W 095°08'2 3.1
2017-Sep-23 21:21N 29°45' W 095°06'0 0.0
2017-Sep-23 20:40N 29°45' W 095°06'1 2.6
2017-Sep-23 20:24N 29°45' W 095°06'1 3.2
2017-Sep-23 20:00N 29°46' W 095°05'1 0.0
2017-Sep-21 23:46N 29°45' W 095°06'2 6.2
2017-Sep-21 23:31N 29°47' W 095°05'0 0.3
2017-Sep-21 21:53N 29°47' W 095°04'3 6.6
2017-Sep-21 21:28N 29°45' W 095°06'0 0.1
2017-Sep-21 20:51N 29°45' W 095°06'0 0.0
2017-Sep-21 20:24N 29°45' W 095°06'3 4.9
2017-Sep-21 19:53N 29°44' W 095°09'5 2.0
2017-Sep-21 17:21N 29°43' W 095°15'3 3.6
2017-Sep-21 16:38N 29°44' W 095°12'1 4.4
2017-Sep-21 16:30N 29°45' W 095°11'3 4.2
2017-Sep-21 15:48N 29°44' W 095°08'2 4.4
2017-Sep-21 15:24N 29°45' W 095°06'1 1.0
2017-Sep-21 14:00N 29°46' W 095°05'1 0.7
2017-Sep-21 13:14N 29°45' W 095°06'0 0.2
2017-Sep-21 11:46N 29°46' W 095°05'0 0.2
2017-Sep-21 10:31N 29°46' W 095°05'0 6.8
2017-Sep-21 10:30N 29°46' W 095°05'0 0.1
2017-Sep-21 08:36N 29°46' W 095°05'2 6.6
2017-Sep-21 08:17N 29°44' W 095°03'0 1.5
2017-Sep-21 07:58N 29°44' W 095°03'0 0.1
2017-Sep-21 07:29N 29°44' W 095°03'0 0.0
2017-Sep-21 07:01N 29°44' W 095°03'0 0.0
2017-Sep-21 06:30N 29°44' W 095°03'0 0.0
2017-Sep-20 06:46N 29°44' W 095°03'0 0.0
2017-Sep-20 06:23N 29°44' W 095°03'1 3.4
2017-Sep-20 05:58N 29°45' W 095°04'2 3.3
2017-Sep-20 05:30N 29°46' W 095°06'0 0.0
2017-Sep-20 04:39N 29°46' W 095°06'0 0.2
2017-Sep-20 04:28N 29°46' W 095°06'3 4.5
2017-Sep-20 03:52N 29°44' W 095°03'0 0.3
2017-Sep-20 03:31N 29°44' W 095°03'0 0.0
2017-Sep-20 01:32N 29°44' W 095°03'0 0.0
2017-Sep-19 18:29N 29°44' W 095°03'0 0.0
2017-Sep-19 09:33N 29°44' W 095°03'0 0.1
2017-Sep-19 09:30N 29°44' W 095°03'0 0.1
2017-Sep-19 08:59N 29°44' W 095°03'0 0.2
2017-Sep-19 08:31N 29°44' W 095°03'0 0.1
2017-Sep-19 08:00N 29°44' W 095°03'0 0.1
2017-Sep-19 07:31N 29°44' W 095°03'1 1.2
2017-Sep-19 06:46N 29°44' W 095°02'1 3.7
2017-Sep-19 06:30N 29°43' W 095°01'2 3.8
2017-Sep-19 06:00N 29°42' W 094°60'1 1.9
2017-Sep-19 05:30N 29°41' W 095°00'0 0.5
2017-Sep-19 05:00N 29°41' W 094°60'1 3.0
2017-Sep-19 04:30N 29°40' W 094°59'3 5.4
2017-Sep-19 04:00N 29°38' W 094°58'3 5.5
2017-Sep-19 03:27N 29°35' W 094°56'2 5.5
2017-Sep-19 03:00N 29°33' W 094°54'  

Dump ship's entire track history